sensor_id;sensor_type;location;lat;lon;timestamp;pressure;altitude;pressure_sealevel;temperature;humidity
84028;BME280;74111;45.650;25.612;2024-01-25T00:02:00;94933.33;;;1.94;68.81
84028;BME280;74111;45.650;25.612;2024-01-25T00:04:28;94933.69;;;1.94;68.76
84028;BME280;74111;45.650;25.612;2024-01-25T00:06:57;94926.81;;;1.74;71.30
84028;BME280;74111;45.650;25.612;2024-01-25T00:09:26;94931.45;;;1.71;71.15
84028;BME280;74111;45.650;25.612;2024-01-25T00:11:54;94927.91;;;1.74;69.39
84028;BME280;74111;45.650;25.612;2024-01-25T00:14:22;94930.63;;;1.72;70.72
84028;BME280;74111;45.650;25.612;2024-01-25T00:16:50;94937.75;;;1.75;70.02
84028;BME280;74111;45.650;25.612;2024-01-25T00:19:19;94935.05;;;1.79;69.18
84028;BME280;74111;45.650;25.612;2024-01-25T00:21:47;94937.30;;;1.82;68.88
84028;BME280;74111;45.650;25.612;2024-01-25T00:24:16;94940.52;;;1.84;68.85
84028;BME280;74111;45.650;25.612;2024-01-25T00:26:44;94944.14;;;1.87;68.25
84028;BME280;74111;45.650;25.612;2024-01-25T00:29:12;94950.09;;;1.85;69.83
84028;BME280;74111;45.650;25.612;2024-01-25T00:31:40;94944.64;;;1.86;69.19
84028;BME280;74111;45.650;25.612;2024-01-25T00:34:08;94942.70;;;1.86;69.72
84028;BME280;74111;45.650;25.612;2024-01-25T00:36:37;94935.95;;;1.84;69.75
84028;BME280;74111;45.650;25.612;2024-01-25T00:39:06;94938.46;;;1.82;69.38
84028;BME280;74111;45.650;25.612;2024-01-25T00:41:34;94941.96;;;1.87;68.65
84028;BME280;74111;45.650;25.612;2024-01-25T00:44:05;94945.18;;;1.83;71.05
84028;BME280;74111;45.650;25.612;2024-01-25T00:46:34;94941.50;;;1.78;71.88
84028;BME280;74111;45.650;25.612;2024-01-25T00:49:02;94941.58;;;1.86;70.57
84028;BME280;74111;45.650;25.612;2024-01-25T00:51:31;94930.80;;;1.93;70.78
84028;BME280;74111;45.650;25.612;2024-01-25T00:54:00;94928.98;;;1.98;70.37
84028;BME280;74111;45.650;25.612;2024-01-25T00:56:28;94919.04;;;2.00;70.24
84028;BME280;74111;45.650;25.612;2024-01-25T00:58:57;94910.59;;;2.00;69.89
84028;BME280;74111;45.650;25.612;2024-01-25T01:01:25;94903.98;;;2.03;70.49
84028;BME280;74111;45.650;25.612;2024-01-25T01:03:55;94895.19;;;2.05;70.41
84028;BME280;74111;45.650;25.612;2024-01-25T01:06:26;94898.77;;;2.11;70.55
84028;BME280;74111;45.650;25.612;2024-01-25T01:08:55;94897.98;;;2.13;70.73
84028;BME280;74111;45.650;25.612;2024-01-25T01:11:24;94896.03;;;2.17;69.99
84028;BME280;74111;45.650;25.612;2024-01-25T01:13:52;94894.89;;;2.25;69.70
84028;BME280;74111;45.650;25.612;2024-01-25T01:16:20;94895.02;;;2.30;69.58
84028;BME280;74111;45.650;25.612;2024-01-25T01:18:49;94893.29;;;2.36;69.28
84028;BME280;74111;45.650;25.612;2024-01-25T01:21:17;94883.67;;;2.44;69.08
84028;BME280;74111;45.650;25.612;2024-01-25T01:23:46;94877.48;;;2.53;69.30
84028;BME280;74111;45.650;25.612;2024-01-25T01:26:14;94873.64;;;2.60;69.24
84028;BME280;74111;45.650;25.612;2024-01-25T01:28:42;94871.88;;;2.66;69.17
84028;BME280;74111;45.650;25.612;2024-01-25T01:31:10;94866.70;;;2.69;69.34
84028;BME280;74111;45.650;25.612;2024-01-25T01:33:38;94863.08;;;2.72;69.66
84028;BME280;74111;45.650;25.612;2024-01-25T01:36:06;94856.59;;;2.75;69.26
84028;BME280;74111;45.650;25.612;2024-01-25T01:38:35;94854.59;;;2.75;69.30
84028;BME280;74111;45.650;25.612;2024-01-25T01:41:03;94848.39;;;2.76;69.48
84028;BME280;74111;45.650;25.612;2024-01-25T01:43:31;94847.86;;;2.75;69.40
84028;BME280;74111;45.650;25.612;2024-01-25T01:49:11;94829.27;;;2.68;69.30
84028;BME280;74111;45.650;25.612;2024-01-25T01:51:41;94827.24;;;2.66;69.13
84028;BME280;74111;45.650;25.612;2024-01-25T01:54:11;94825.71;;;2.64;69.47
84028;BME280;74111;45.650;25.612;2024-01-25T01:56:39;94822.83;;;2.64;69.44
84028;BME280;74111;45.650;25.612;2024-01-25T01:59:11;94822.36;;;2.66;69.41
84028;BME280;74111;45.650;25.612;2024-01-25T02:01:39;94822.43;;;2.71;69.67
84028;BME280;74111;45.650;25.612;2024-01-25T02:04:08;94817.15;;;2.76;69.55
84028;BME280;74111;45.650;25.612;2024-01-25T02:06:36;94816.36;;;2.77;69.65
84028;BME280;74111;45.650;25.612;2024-01-25T02:09:05;94806.52;;;2.74;70.19
84028;BME280;74111;45.650;25.612;2024-01-25T02:11:33;94808.38;;;2.67;70.75
84028;BME280;74111;45.650;25.612;2024-01-25T02:14:01;94809.36;;;2.66;71.28
84028;BME280;74111;45.650;25.612;2024-01-25T02:16:29;94812.67;;;2.65;70.93
84028;BME280;74111;45.650;25.612;2024-01-25T02:18:58;94816.61;;;2.64;70.54
84028;BME280;74111;45.650;25.612;2024-01-25T02:21:26;94816.98;;;2.66;70.16
84028;BME280;74111;45.650;25.612;2024-01-25T02:23:55;94813.33;;;2.67;70.87
84028;BME280;74111;45.650;25.612;2024-01-25T02:26:24;94813.34;;;2.71;70.40
84028;BME280;74111;45.650;25.612;2024-01-25T02:28:52;94818.52;;;2.77;70.62
84028;BME280;74111;45.650;25.612;2024-01-25T02:31:22;94821.48;;;2.78;70.98
84028;BME280;74111;45.650;25.612;2024-01-25T02:33:50;94819.77;;;2.82;70.44
84028;BME280;74111;45.650;25.612;2024-01-25T02:36:22;94813.21;;;2.87;70.10
84028;BME280;74111;45.650;25.612;2024-01-25T02:38:51;94818.31;;;2.87;70.71
84028;BME280;74111;45.650;25.612;2024-01-25T02:41:19;94814.73;;;2.87;70.71
84028;BME280;74111;45.650;25.612;2024-01-25T02:43:47;94817.84;;;2.87;70.61
84028;BME280;74111;45.650;25.612;2024-01-25T02:46:15;94829.30;;;2.89;70.17
84028;BME280;74111;45.650;25.612;2024-01-25T02:48:43;94828.91;;;2.92;69.67
84028;BME280;74111;45.650;25.612;2024-01-25T02:51:14;94833.81;;;2.95;69.81
84028;BME280;74111;45.650;25.612;2024-01-25T02:53:43;94830.96;;;2.95;69.42
84028;BME280;74111;45.650;25.612;2024-01-25T02:56:11;94829.34;;;2.94;69.91
84028;BME280;74111;45.650;25.612;2024-01-25T02:58:39;94829.73;;;2.87;70.87
84028;BME280;74111;45.650;25.612;2024-01-25T03:01:07;94830.50;;;2.76;71.53
84028;BME280;74111;45.650;25.612;2024-01-25T03:03:36;94827.45;;;2.63;71.85
84028;BME280;74111;45.650;25.612;2024-01-25T03:06:05;94824.06;;;2.62;71.18
84028;BME280;74111;45.650;25.612;2024-01-25T03:08:34;94817.04;;;2.54;71.90
84028;BME280;74111;45.650;25.612;2024-01-25T03:11:02;94819.86;;;2.53;71.68
84028;BME280;74111;45.650;25.612;2024-01-25T03:13:32;94813.15;;;2.55;71.04
84028;BME280;74111;45.650;25.612;2024-01-25T03:16:02;94813.56;;;2.54;71.84
84028;BME280;74111;45.650;25.612;2024-01-25T03:18:30;94808.11;;;2.55;71.39
84028;BME280;74111;45.650;25.612;2024-01-25T03:20:59;94806.32;;;2.56;71.71
84028;BME280;74111;45.650;25.612;2024-01-25T03:23:27;94811.40;;;2.55;71.41
84028;BME280;74111;45.650;25.612;2024-01-25T03:25:56;94811.73;;;2.55;71.28
84028;BME280;74111;45.650;25.612;2024-01-25T03:28:24;94808.85;;;2.56;70.84
84028;BME280;74111;45.650;25.612;2024-01-25T03:30:52;94806.22;;;2.57;70.90
84028;BME280;74111;45.650;25.612;2024-01-25T03:33:20;94804.50;;;2.50;71.84
84028;BME280;74111;45.650;25.612;2024-01-25T03:35:49;94809.94;;;2.46;72.07
84028;BME280;74111;45.650;25.612;2024-01-25T03:38:18;94810.84;;;2.48;72.18
84028;BME280;74111;45.650;25.612;2024-01-25T03:40:46;94805.85;;;2.48;72.00
84028;BME280;74111;45.650;25.612;2024-01-25T03:43:15;94806.65;;;2.42;72.54
84028;BME280;74111;45.650;25.612;2024-01-25T03:45:51;94802.70;;;2.40;72.45
84028;BME280;74111;45.650;25.612;2024-01-25T03:48:20;94800.91;;;2.41;71.81
84028;BME280;74111;45.650;25.612;2024-01-25T03:50:50;94804.99;;;2.38;72.53
84028;BME280;74111;45.650;25.612;2024-01-25T03:53:18;94799.92;;;2.33;73.16
84028;BME280;74111;45.650;25.612;2024-01-25T03:55:47;94798.83;;;2.35;72.35
84028;BME280;74111;45.650;25.612;2024-01-25T03:58:18;94796.48;;;2.37;72.87
84028;BME280;74111;45.650;25.612;2024-01-25T04:00:46;94797.81;;;2.38;72.54
84028;BME280;74111;45.650;25.612;2024-01-25T04:03:15;94798.30;;;2.35;73.75
84028;BME280;74111;45.650;25.612;2024-01-25T04:05:44;94795.46;;;2.34;72.84
84028;BME280;74111;45.650;25.612;2024-01-25T04:08:12;94798.52;;;2.36;72.29
84028;BME280;74111;45.650;25.612;2024-01-25T04:10:41;94801.25;;;2.35;72.63
84028;BME280;74111;45.650;25.612;2024-01-25T04:13:09;94801.45;;;2.33;72.35
84028;BME280;74111;45.650;25.612;2024-01-25T04:15:37;94803.03;;;2.26;72.95
84028;BME280;74111;45.650;25.612;2024-01-25T04:18:05;94800.05;;;2.27;72.39
84028;BME280;74111;45.650;25.612;2024-01-25T04:20:34;94795.59;;;2.30;72.87
84028;BME280;74111;45.650;25.612;2024-01-25T04:23:02;94796.77;;;2.33;72.72
84028;BME280;74111;45.650;25.612;2024-01-25T04:25:30;94794.30;;;2.38;72.40
84028;BME280;74111;45.650;25.612;2024-01-25T04:28:01;94788.86;;;2.44;72.65
84028;BME280;74111;45.650;25.612;2024-01-25T04:30:30;94799.23;;;2.49;72.35
84028;BME280;74111;45.650;25.612;2024-01-25T04:33:02;94802.98;;;2.53;71.76
84028;BME280;74111;45.650;25.612;2024-01-25T04:35:30;94802.44;;;2.58;71.81
84028;BME280;74111;45.650;25.612;2024-01-25T04:38:00;94805.57;;;2.62;71.45
84028;BME280;74111;45.650;25.612;2024-01-25T04:40:28;94802.00;;;2.64;71.69
84028;BME280;74111;45.650;25.612;2024-01-25T04:42:56;94801.95;;;2.63;72.16
84028;BME280;74111;45.650;25.612;2024-01-25T04:45:24;94798.48;;;2.62;72.17
84028;BME280;74111;45.650;25.612;2024-01-25T04:47:52;94794.38;;;2.62;71.62
84028;BME280;74111;45.650;25.612;2024-01-25T04:50:21;94778.71;;;2.64;71.29
84028;BME280;74111;45.650;25.612;2024-01-25T04:52:49;94777.10;;;2.70;71.11
84028;BME280;74111;45.650;25.612;2024-01-25T04:55:17;94779.65;;;2.77;71.18
84028;BME280;74111;45.650;25.612;2024-01-25T04:57:47;94778.48;;;2.83;71.24
84028;BME280;74111;45.650;25.612;2024-01-25T05:00:18;94781.45;;;2.88;71.30
84028;BME280;74111;45.650;25.612;2024-01-25T05:02:46;94780.75;;;2.91;71.17
84028;BME280;74111;45.650;25.612;2024-01-25T05:05:14;94784.46;;;2.93;70.89
84028;BME280;74111;45.650;25.612;2024-01-25T05:07:43;94791.17;;;2.91;71.14
84028;BME280;74111;45.650;25.612;2024-01-25T05:10:11;94789.11;;;2.89;70.94
84028;BME280;74111;45.650;25.612;2024-01-25T05:12:40;94785.17;;;2.88;70.70
84028;BME280;74111;45.650;25.612;2024-01-25T05:15:08;94793.64;;;2.85;70.99
84028;BME280;74111;45.650;25.612;2024-01-25T05:17:36;94788.89;;;2.83;70.53
84028;BME280;74111;45.650;25.612;2024-01-25T05:20:05;94780.48;;;2.82;70.54
84028;BME280;74111;45.650;25.612;2024-01-25T05:22:34;94775.36;;;2.80;70.80
84028;BME280;74111;45.650;25.612;2024-01-25T05:25:08;94778.29;;;2.78;70.97
84028;BME280;74111;45.650;25.612;2024-01-25T05:27:36;94775.88;;;2.78;70.91
84028;BME280;74111;45.650;25.612;2024-01-25T05:30:06;94775.60;;;2.79;71.15
84028;BME280;74111;45.650;25.612;2024-01-25T05:32:34;94767.95;;;2.83;71.12
84028;BME280;74111;45.650;25.612;2024-01-25T05:35:03;94769.39;;;2.86;71.55
84028;BME280;74111;45.650;25.612;2024-01-25T05:37:32;94773.50;;;2.88;71.31
84028;BME280;74111;45.650;25.612;2024-01-25T05:40:00;94774.14;;;2.91;71.28
84028;BME280;74111;45.650;25.612;2024-01-25T05:42:28;94776.05;;;2.94;71.40
84028;BME280;74111;45.650;25.612;2024-01-25T05:44:57;94774.10;;;2.96;71.46
84028;BME280;74111;45.650;25.612;2024-01-25T05:47:25;94770.17;;;2.99;71.33
84028;BME280;74111;45.650;25.612;2024-01-25T05:49:54;94781.28;;;3.04;71.48
84028;BME280;74111;45.650;25.612;2024-01-25T05:52:23;94783.98;;;3.08;70.90
84028;BME280;74111;45.650;25.612;2024-01-25T05:54:52;94780.30;;;3.06;70.85
84028;BME280;74111;45.650;25.612;2024-01-25T05:57:20;94777.19;;;3.05;70.91
84028;BME280;74111;45.650;25.612;2024-01-25T05:59:49;94779.80;;;2.99;71.41
84028;BME280;74111;45.650;25.612;2024-01-25T06:02:17;94780.36;;;2.97;71.51
84028;BME280;74111;45.650;25.612;2024-01-25T06:04:46;94789.07;;;2.99;71.43
84028;BME280;74111;45.650;25.612;2024-01-25T06:07:14;94792.52;;;2.99;71.33
84028;BME280;74111;45.650;25.612;2024-01-25T06:09:43;94795.51;;;2.96;71.55
84028;BME280;74111;45.650;25.612;2024-01-25T06:12:11;94796.35;;;2.97;71.22
84028;BME280;74111;45.650;25.612;2024-01-25T06:14:39;94801.42;;;3.01;71.16
84028;BME280;74111;45.650;25.612;2024-01-25T06:17:07;94796.61;;;3.05;71.06
84028;BME280;74111;45.650;25.612;2024-01-25T06:19:35;94792.71;;;3.10;70.87
84028;BME280;74111;45.650;25.612;2024-01-25T06:22:04;94807.63;;;3.12;70.81
84028;BME280;74111;45.650;25.612;2024-01-25T06:24:32;94819.78;;;3.11;70.85
84028;BME280;74111;45.650;25.612;2024-01-25T06:27:00;94811.89;;;3.12;70.95
84028;BME280;74111;45.650;25.612;2024-01-25T06:29:28;94803.15;;;3.13;70.87
84028;BME280;74111;45.650;25.612;2024-01-25T06:31:56;94800.47;;;3.12;70.42
84028;BME280;74111;45.650;25.612;2024-01-25T06:34:25;94800.46;;;3.07;70.86
84028;BME280;74111;45.650;25.612;2024-01-25T06:36:53;94799.92;;;3.07;70.68
84028;BME280;74111;45.650;25.612;2024-01-25T06:39:21;94797.60;;;3.04;71.24
84028;BME280;74111;45.650;25.612;2024-01-25T06:41:50;94800.24;;;3.06;71.22
84028;BME280;74111;45.650;25.612;2024-01-25T06:44:18;94796.33;;;3.00;71.97
84028;BME280;74111;45.650;25.612;2024-01-25T06:46:46;94795.58;;;3.02;71.42
84028;BME280;74111;45.650;25.612;2024-01-25T06:49:15;94791.64;;;3.02;71.54
84028;BME280;74111;45.650;25.612;2024-01-25T06:51:43;94798.08;;;3.06;71.65
84028;BME280;74111;45.650;25.612;2024-01-25T06:54:11;94797.30;;;3.12;71.20
84028;BME280;74111;45.650;25.612;2024-01-25T06:56:40;94799.16;;;3.16;71.36
84028;BME280;74111;45.650;25.612;2024-01-25T06:59:08;94793.48;;;3.20;71.61
84028;BME280;74111;45.650;25.612;2024-01-25T07:01:36;94800.94;;;3.26;71.19
84028;BME280;74111;45.650;25.612;2024-01-25T07:04:05;94807.83;;;3.29;71.25
84028;BME280;74111;45.650;25.612;2024-01-25T07:06:34;94809.55;;;3.38;71.15
84028;BME280;74111;45.650;25.612;2024-01-25T07:09:02;94806.30;;;3.47;70.98
84028;BME280;74111;45.650;25.612;2024-01-25T07:11:31;94794.20;;;3.55;70.97
84028;BME280;74111;45.650;25.612;2024-01-25T07:13:59;94789.95;;;3.62;71.01
84028;BME280;74111;45.650;25.612;2024-01-25T07:16:28;94781.99;;;3.66;70.50
84028;BME280;74111;45.650;25.612;2024-01-25T07:18:58;94788.10;;;3.71;70.56
84028;BME280;74111;45.650;25.612;2024-01-25T07:21:27;94787.67;;;3.71;69.90
84028;BME280;74111;45.650;25.612;2024-01-25T07:23:55;94789.70;;;3.73;70.15
84028;BME280;74111;45.650;25.612;2024-01-25T07:26:23;94788.06;;;3.78;70.17
84028;BME280;74111;45.650;25.612;2024-01-25T07:28:52;94792.07;;;3.82;69.96
84028;BME280;74111;45.650;25.612;2024-01-25T07:31:26;94787.11;;;3.83;69.53
84028;BME280;74111;45.650;25.612;2024-01-25T07:33:56;94790.09;;;3.87;69.74
84028;BME280;74111;45.650;25.612;2024-01-25T07:36:24;94789.08;;;3.95;69.74
84028;BME280;74111;45.650;25.612;2024-01-25T07:38:52;94795.66;;;4.04;69.87
84028;BME280;74111;45.650;25.612;2024-01-25T07:41:21;94787.80;;;4.09;69.17
84028;BME280;74111;45.650;25.612;2024-01-25T07:43:50;94791.30;;;4.11;68.97
84028;BME280;74111;45.650;25.612;2024-01-25T07:46:22;94794.25;;;4.11;68.87
84028;BME280;74111;45.650;25.612;2024-01-25T07:48:52;94793.13;;;4.13;68.84
84028;BME280;74111;45.650;25.612;2024-01-25T07:51:21;94797.49;;;4.13;68.50
84028;BME280;74111;45.650;25.612;2024-01-25T07:53:49;94805.41;;;4.12;68.89
84028;BME280;74111;45.650;25.612;2024-01-25T07:56:18;94805.98;;;4.14;69.01
84028;BME280;74111;45.650;25.612;2024-01-25T07:58:51;94807.23;;;4.11;68.73
84028;BME280;74111;45.650;25.612;2024-01-25T08:01:20;94798.30;;;4.05;68.70
84028;BME280;74111;45.650;25.612;2024-01-25T08:03:50;94791.77;;;3.96;68.99
84028;BME280;74111;45.650;25.612;2024-01-25T08:06:19;94787.80;;;3.95;69.11
84028;BME280;74111;45.650;25.612;2024-01-25T08:08:48;94790.76;;;3.87;69.37
84028;BME280;74111;45.650;25.612;2024-01-25T08:11:16;94793.86;;;3.83;69.61
84028;BME280;74111;45.650;25.612;2024-01-25T08:13:46;94800.54;;;3.78;69.76
84028;BME280;74111;45.650;25.612;2024-01-25T08:16:18;94803.13;;;3.78;69.89
84028;BME280;74111;45.650;25.612;2024-01-25T08:18:50;94805.39;;;3.75;69.84
84028;BME280;74111;45.650;25.612;2024-01-25T08:21:18;94808.44;;;3.69;70.26
84028;BME280;74111;45.650;25.612;2024-01-25T08:23:47;94815.77;;;3.74;70.45
84028;BME280;74111;45.650;25.612;2024-01-25T08:26:15;94817.66;;;3.72;70.59
84028;BME280;74111;45.650;25.612;2024-01-25T08:28:43;94815.69;;;3.66;70.67
84028;BME280;74111;45.650;25.612;2024-01-25T08:31:12;94822.50;;;3.66;70.59
84028;BME280;74111;45.650;25.612;2024-01-25T08:33:41;94823.90;;;3.56;70.84
84028;BME280;74111;45.650;25.612;2024-01-25T08:36:16;94823.45;;;3.42;71.29
84028;BME280;74111;45.650;25.612;2024-01-25T08:38:45;94822.80;;;3.36;71.50
84028;BME280;74111;45.650;25.612;2024-01-25T08:41:13;94822.77;;;3.32;71.67
84028;BME280;74111;45.650;25.612;2024-01-25T08:43:43;94825.09;;;3.27;72.38
84028;BME280;74111;45.650;25.612;2024-01-25T08:46:14;94833.14;;;3.28;72.23
84028;BME280;74111;45.650;25.612;2024-01-25T08:48:43;94827.61;;;3.28;72.55
84028;BME280;74111;45.650;25.612;2024-01-25T08:51:12;94825.72;;;3.27;72.57
84028;BME280;74111;45.650;25.612;2024-01-25T08:53:40;94827.65;;;3.34;72.54
84028;BME280;74111;45.650;25.612;2024-01-25T08:56:08;94832.84;;;3.34;72.43
84028;BME280;74111;45.650;25.612;2024-01-25T08:58:37;94825.39;;;3.39;72.02
84028;BME280;74111;45.650;25.612;2024-01-25T09:01:05;94824.33;;;3.39;72.10
84028;BME280;74111;45.650;25.612;2024-01-25T09:03:33;94825.91;;;3.41;71.80
84028;BME280;74111;45.650;25.612;2024-01-25T09:06:02;94816.59;;;3.36;72.03
84028;BME280;74111;45.650;25.612;2024-01-25T09:08:34;94818.80;;;3.40;71.92
84028;BME280;74111;45.650;25.612;2024-01-25T09:11:03;94818.81;;;3.40;72.45
84028;BME280;74111;45.650;25.612;2024-01-25T09:13:31;94825.96;;;3.40;72.20
84028;BME280;74111;45.650;25.612;2024-01-25T09:16:12;94820.14;;;3.48;72.64
84028;BME280;74111;45.650;25.612;2024-01-25T09:18:40;94819.12;;;3.61;72.64
84028;BME280;74111;45.650;25.612;2024-01-25T09:21:09;94825.98;;;3.67;71.67
84028;BME280;74111;45.650;25.612;2024-01-25T09:23:40;94831.52;;;3.70;71.78
84028;BME280;74111;45.650;25.612;2024-01-25T09:26:09;94822.83;;;3.75;71.89
84028;BME280;74111;45.650;25.612;2024-01-25T09:28:37;94816.83;;;3.73;71.29
84028;BME280;74111;45.650;25.612;2024-01-25T09:31:08;94817.98;;;3.73;71.67
84028;BME280;74111;45.650;25.612;2024-01-25T09:33:37;94817.98;;;3.75;71.63
84028;BME280;74111;45.650;25.612;2024-01-25T09:36:06;94814.05;;;3.75;70.99
84028;BME280;74111;45.650;25.612;2024-01-25T09:38:35;94814.66;;;3.75;71.21
84028;BME280;74111;45.650;25.612;2024-01-25T09:41:03;94807.71;;;3.78;71.51
84028;BME280;74111;45.650;25.612;2024-01-25T09:43:33;94804.73;;;3.86;70.98
84028;BME280;74111;45.650;25.612;2024-01-25T09:46:02;94799.66;;;3.89;70.90
84028;BME280;74111;45.650;25.612;2024-01-25T09:48:31;94795.91;;;3.84;70.66
84028;BME280;74111;45.650;25.612;2024-01-25T09:50:59;94798.04;;;3.85;70.68
84028;BME280;74111;45.650;25.612;2024-01-25T09:53:30;94802.51;;;3.81;70.43
84028;BME280;74111;45.650;25.612;2024-01-25T09:56:10;94802.77;;;3.75;70.63
84028;BME280;74111;45.650;25.612;2024-01-25T09:58:43;94802.55;;;3.72;70.14
84028;BME280;74111;45.650;25.612;2024-01-25T10:01:15;94799.54;;;3.65;70.01
84028;BME280;74111;45.650;25.612;2024-01-25T10:03:45;94792.23;;;3.68;70.04
84028;BME280;74111;45.650;25.612;2024-01-25T10:06:16;94789.84;;;3.70;70.00
84028;BME280;74111;45.650;25.612;2024-01-25T10:08:45;94797.39;;;3.74;69.85
84028;BME280;74111;45.650;25.612;2024-01-25T10:11:15;94798.28;;;3.77;69.47
84028;BME280;74111;45.650;25.612;2024-01-25T10:13:45;94799.55;;;3.76;69.32
84028;BME280;74111;45.650;25.612;2024-01-25T10:16:17;94799.98;;;3.70;69.42
84028;BME280;74111;45.650;25.612;2024-01-25T10:18:48;94792.58;;;3.59;69.32
84028;BME280;74111;45.650;25.612;2024-01-25T10:21:20;94790.73;;;3.60;69.47
84028;BME280;74111;45.650;25.612;2024-01-25T10:23:49;94780.03;;;3.54;69.67
84028;BME280;74111;45.650;25.612;2024-01-25T10:26:19;94781.79;;;3.60;69.59
84028;BME280;74111;45.650;25.612;2024-01-25T10:28:52;94783.67;;;3.61;68.87
84028;BME280;74111;45.650;25.612;2024-01-25T10:31:29;94779.94;;;3.63;68.88
84028;BME280;74111;45.650;25.612;2024-01-25T10:33:59;94770.57;;;3.63;68.77
84028;BME280;74111;45.650;25.612;2024-01-25T10:36:29;94763.98;;;3.70;68.58
84028;BME280;74111;45.650;25.612;2024-01-25T10:38:59;94771.41;;;3.77;68.26
84028;BME280;74111;45.650;25.612;2024-01-25T10:41:30;94763.36;;;3.80;67.97
84028;BME280;74111;45.650;25.612;2024-01-25T10:43:59;94765.42;;;3.79;67.63
84028;BME280;74111;45.650;25.612;2024-01-25T10:46:29;94757.98;;;3.75;67.69
84028;BME280;74111;45.650;25.612;2024-01-25T10:48:58;94756.36;;;3.81;67.43
84028;BME280;74111;45.650;25.612;2024-01-25T10:51:30;94756.61;;;3.84;67.04
84028;BME280;74111;45.650;25.612;2024-01-25T10:54:00;94751.45;;;3.82;66.75
84028;BME280;74111;45.650;25.612;2024-01-25T10:56:29;94750.04;;;3.86;66.83
84028;BME280;74111;45.650;25.612;2024-01-25T10:58:57;94744.08;;;3.87;66.44
84028;BME280;74111;45.650;25.612;2024-01-25T11:01:27;94744.19;;;3.89;66.26
84028;BME280;74111;45.650;25.612;2024-01-25T11:03:56;94742.61;;;3.92;66.19
84028;BME280;74111;45.650;25.612;2024-01-25T11:06:27;94740.59;;;3.95;66.19
84028;BME280;74111;45.650;25.612;2024-01-25T11:09:05;94737.77;;;3.93;65.98
84028;BME280;74111;45.650;25.612;2024-01-25T11:11:35;94735.38;;;3.96;65.91
84028;BME280;74111;45.650;25.612;2024-01-25T11:14:04;94728.80;;;3.95;66.19
84028;BME280;74111;45.650;25.612;2024-01-25T11:16:33;94726.67;;;3.96;66.13
84028;BME280;74111;45.650;25.612;2024-01-25T11:19:04;94723.48;;;3.95;66.14
84028;BME280;74111;45.650;25.612;2024-01-25T11:24:17;94721.94;;;3.97;65.72
84028;BME280;74111;45.650;25.612;2024-01-25T11:26:47;94720.80;;;3.92;65.92
84028;BME280;74111;45.650;25.612;2024-01-25T11:29:18;94721.80;;;3.90;65.77
84028;BME280;74111;45.650;25.612;2024-01-25T11:31:50;94718.53;;;3.92;65.64
84028;BME280;74111;45.650;25.612;2024-01-25T11:34:18;94719.16;;;3.91;65.59
84028;BME280;74111;45.650;25.612;2024-01-25T11:36:47;94711.67;;;3.92;65.76
84028;BME280;74111;45.650;25.612;2024-01-25T11:39:16;94707.05;;;3.91;65.49
84028;BME280;74111;45.650;25.612;2024-01-25T11:41:47;94702.98;;;3.92;65.81
84028;BME280;74111;45.650;25.612;2024-01-25T11:44:16;94704.77;;;3.94;65.77
84028;BME280;74111;45.650;25.612;2024-01-25T11:46:45;94705.09;;;3.94;65.22
84028;BME280;74111;45.650;25.612;2024-01-25T11:49:13;94703.67;;;3.90;65.06
84028;BME280;74111;45.650;25.612;2024-01-25T11:51:41;94699.71;;;3.90;65.50
84028;BME280;74111;45.650;25.612;2024-01-25T11:54:11;94702.30;;;3.89;65.27
84028;BME280;74111;45.650;25.612;2024-01-25T11:56:40;94698.30;;;3.92;65.20
84028;BME280;74111;45.650;25.612;2024-01-25T11:59:10;94707.52;;;3.88;65.22
84028;BME280;74111;45.650;25.612;2024-01-25T12:01:40;94700.45;;;3.90;65.28
84028;BME280;74111;45.650;25.612;2024-01-25T12:04:09;94700.88;;;3.95;65.38
84028;BME280;74111;45.650;25.612;2024-01-25T12:06:38;94702.92;;;3.97;65.35
84028;BME280;74111;45.650;25.612;2024-01-25T12:09:10;94714.20;;;3.98;65.64
84028;BME280;74111;45.650;25.612;2024-01-25T12:11:40;94723.41;;;4.00;65.77
84028;BME280;74111;45.650;25.612;2024-01-25T12:14:09;94737.27;;;4.01;66.04
84028;BME280;74111;45.650;25.612;2024-01-25T12:16:39;94738.01;;;4.00;65.87
84028;BME280;74111;45.650;25.612;2024-01-25T12:19:07;94736.74;;;3.98;65.92
84028;BME280;74111;45.650;25.612;2024-01-25T12:21:36;94734.55;;;3.85;66.85
84028;BME280;74111;45.650;25.612;2024-01-25T12:24:05;94728.06;;;3.71;67.81
84028;BME280;74111;45.650;25.612;2024-01-25T12:26:36;94731.98;;;3.59;68.69
84028;BME280;74111;45.650;25.612;2024-01-25T12:29:05;94729.86;;;3.52;68.98
84028;BME280;74111;45.650;25.612;2024-01-25T12:31:33;94724.59;;;3.54;69.07
84028;BME280;74111;45.650;25.612;2024-01-25T12:34:02;94718.80;;;3.62;69.22
84028;BME280;74111;45.650;25.612;2024-01-25T12:36:31;94721.48;;;3.74;68.27
84028;BME280;74111;45.650;25.612;2024-01-25T12:39:02;94721.11;;;3.77;68.00
84028;BME280;74111;45.650;25.612;2024-01-25T12:41:30;94722.70;;;3.80;67.67
84028;BME280;74111;45.650;25.612;2024-01-25T12:43:59;94721.95;;;3.83;67.29
84028;BME280;74111;45.650;25.612;2024-01-25T12:46:28;94726.17;;;3.86;67.02
84028;BME280;74111;45.650;25.612;2024-01-25T12:49:01;94716.52;;;3.87;66.53
84028;BME280;74111;45.650;25.612;2024-01-25T12:51:31;94717.70;;;3.84;66.28
84028;BME280;74111;45.650;25.612;2024-01-25T12:53:59;94713.63;;;3.80;66.32
84028;BME280;74111;45.650;25.612;2024-01-25T12:56:28;94715.89;;;3.82;66.29
84028;BME280;74111;45.650;25.612;2024-01-25T12:58:56;94720.85;;;3.87;66.11
84028;BME280;74111;45.650;25.612;2024-01-25T13:01:24;94717.73;;;3.91;65.75
84028;BME280;74111;45.650;25.612;2024-01-25T13:03:53;94704.81;;;3.98;65.47
84028;BME280;74111;45.650;25.612;2024-01-25T13:06:21;94702.48;;;3.99;65.38
84028;BME280;74111;45.650;25.612;2024-01-25T13:08:49;94714.55;;;4.05;64.81
84028;BME280;74111;45.650;25.612;2024-01-25T13:11:17;94711.64;;;4.09;64.57
84028;BME280;74111;45.650;25.612;2024-01-25T13:13:46;94719.34;;;4.13;64.56
84028;BME280;74111;45.650;25.612;2024-01-25T13:16:14;94721.45;;;4.12;64.16